Time;durP1;ratioP1;P1;durP2;ratioP2;P2;SDS_P1;SDS_P2;PMS_P1;PMS_P2;Temp;Humidity;BMP_temperature;BMP_pressure;BME280_temperature;BME280_humidity;BME280_pressure;Samples;Min_cycle;Max_cycle;Signal;HPM_P1;HPM_P2
2022/11/24 00:00:52;;;;;;;19.08;9.98;;;6.90;99.90;;;;;;7373861;19;20429;-49
2022/11/24 00:03:19;;;;;;;25.00;10.90;;;6.80;99.90;;;;;;7370593;19;20755;-46
2022/11/24 00:05:45;;;;;;;19.77;10.00;;;6.80;99.90;;;;;;7380913;19;20470;-46
2022/11/24 00:08:12;;;;;;;21.58;10.32;;;6.70;99.90;;;;;;7367447;19;20474;-48
2022/11/24 00:10:38;;;;;;;20.75;11.88;;;6.70;99.90;;;;;;7371749;19;20465;-49
2022/11/24 00:13:04;;;;;;;18.67;9.93;;;6.70;99.90;;;;;;7391352;19;20022;-49
2022/11/24 00:15:30;;;;;;;20.33;10.68;;;6.70;99.90;;;;;;7390562;19;20014;-50
2022/11/24 00:17:56;;;;;;;28.00;10.25;;;6.60;99.90;;;;;;7393204;19;20014;-50
2022/11/24 00:20:23;;;;;;;23.80;10.30;;;6.60;99.90;;;;;;7388458;19;20025;-47
2022/11/24 00:22:51;;;;;;;22.27;9.77;;;6.70;99.90;;;;;;7369886;19;20108;-46
2022/11/24 00:25:17;;;;;;;18.90;8.70;;;6.60;99.90;;;;;;7368303;19;20769;-51
2022/11/24 00:27:44;;;;;;;22.33;9.80;;;6.70;99.90;;;;;;7390492;19;20042;-47
2022/11/24 00:30:11;;;;;;;21.23;9.25;;;6.70;99.90;;;;;;7367132;19;20015;-47
2022/11/24 00:32:37;;;;;;;18.92;8.10;;;6.70;99.90;;;;;;7369355;19;20490;-45
2022/11/24 00:35:04;;;;;;;19.60;9.05;;;6.60;99.90;;;;;;7370746;19;20367;-45
2022/11/24 00:37:30;;;;;;;24.05;8.85;;;6.60;99.90;;;;;;7369785;19;20466;-44
2022/11/24 00:39:56;;;;;;;22.65;8.57;;;6.60;99.90;;;;;;7375244;19;20030;-50
2022/11/24 00:42:22;;;;;;;19.00;8.88;;;6.60;99.90;;;;;;7391862;19;20028;-45
2022/11/24 00:44:48;;;;;;;20.50;9.05;;;6.70;99.90;;;;;;7390334;19;20393;-50
2022/11/24 00:47:16;;;;;;;18.63;8.02;;;6.60;99.90;;;;;;7390907;19;20473;-47
2022/11/24 00:49:42;;;;;;;18.90;9.68;;;6.60;99.90;;;;;;7390769;19;20414;-51
2022/11/24 00:52:08;;;;;;;16.02;7.13;;;6.60;99.90;;;;;;7373053;19;20022;-48
2022/11/24 00:54:34;;;;;;;21.85;8.73;;;6.60;99.90;;;;;;7371862;19;20050;-47
2022/11/24 00:57:01;;;;;;;17.50;6.57;;;6.50;99.90;;;;;;7367859;19;20018;-46
2022/11/24 00:59:27;;;;;;;23.30;8.07;;;6.50;99.90;;;;;;7374831;19;20375;-47
2022/11/24 01:01:53;;;;;;;27.95;8.45;;;6.60;99.90;;;;;;7366544;19;20386;-46
2022/11/24 01:04:20;;;;;;;19.73;7.93;;;6.60;99.90;;;;;;7367117;19;20640;-49
2022/11/24 01:06:46;;;;;;;22.02;7.63;;;6.60;99.90;;;;;;7388973;19;20014;-47
2022/11/24 01:09:13;;;;;;;27.83;7.38;;;6.60;99.90;;;;;;7388995;19;20111;-45
2022/11/24 01:14:24;;;;;;;19.98;6.32;;;6.60;99.90;;;;;;7397937;19;20390;-46
2022/11/24 01:16:51;;;;;;;21.67;7.20;;;6.60;99.90;;;;;;7396648;19;20489;-48
2022/11/24 01:19:18;;;;;;;18.10;5.88;;;6.60;99.90;;;;;;7397497;19;20042;-51
2022/11/24 01:21:44;;;;;;;18.02;6.13;;;6.60;99.90;;;;;;7398487;19;20010;-49
2022/11/24 01:24:11;;;;;;;24.80;7.03;;;6.60;99.90;;;;;;7395433;19;20022;-49
2022/11/24 01:26:37;;;;;;;23.73;6.47;;;6.60;99.90;;;;;;7399521;19;20014;-49
2022/11/24 01:29:04;;;;;;;20.77;5.90;;;6.50;99.90;;;;;;7397288;19;20032;-49
2022/11/24 01:31:31;;;;;;;20.25;6.82;;;6.60;99.90;;;;;;7396790;19;20011;-48
2022/11/24 01:33:57;;;;;;;16.35;6.15;;;6.60;99.90;;;;;;7397015;19;20006;-45
2022/11/24 01:36:25;;;;;;;20.40;6.40;;;6.60;99.90;;;;;;7396485;19;20018;-51
2022/11/24 01:38:52;;;;;;;21.95;7.03;;;6.50;99.90;;;;;;7396744;19;20043;-47
2022/11/24 01:41:21;;;;;;;13.73;5.57;;;6.60;99.90;;;;;;7398842;19;20025;-48
2022/11/24 01:43:48;;;;;;;21.85;5.47;;;6.60;99.90;;;;;;7393250;19;20023;-46
2022/11/24 01:46:37;;;;;;;23.00;6.10;;;6.60;99.90;;;;;;7389922;19;20006;-49
2022/11/24 01:49:16;;;;;;;24.30;6.30;;;6.60;99.90;;;;;;7394366;19;20022;-51
2022/11/24 01:51:51;;;;;;;20.17;5.22;;;6.60;99.90;;;;;;7396377;19;20069;-51
2022/11/24 01:54:40;;;;;;;25.23;5.43;;;6.60;99.90;;;;;;7395345;19;20042;-50
2022/11/24 01:57:25;;;;;;;23.00;6.35;;;6.60;99.90;;;;;;7395879;19;20478;-51
2022/11/24 01:59:56;;;;;;;17.88;5.70;;;6.60;99.90;;;;;;7396720;19;20478;-48
2022/11/24 02:02:26;;;;;;;25.65;5.38;;;6.60;99.90;;;;;;7380137;19;20015;-46
2022/11/24 02:04:53;;;;;;;19.23;5.72;;;6.60;99.90;;;;;;7371335;19;20019;-47
2022/11/24 02:07:19;;;;;;;15.90;4.93;;;6.50;99.90;;;;;;7377525;19;20132;-46
2022/11/24 02:09:53;;;;;;;23.90;6.28;;;6.50;99.90;;;;;;7374111;19;20011;-46
2022/11/24 02:12:22;;;;;;;18.77;5.00;;;6.60;99.90;;;;;;7391465;19;20042;-50
2022/11/24 02:14:51;;;;;;;21.25;5.47;;;6.50;99.90;;;;;;7395114;19;20399;-50
2022/11/24 02:17:17;;;;;;;21.25;6.35;;;6.50;99.90;;;;;;7395892;19;20014;-48
2022/11/24 02:19:59;;;;;;;25.10;5.55;;;6.50;99.90;;;;;;7377673;19;20023;-47
2022/11/24 02:23:00;;;;;;;18.60;5.30;;;6.50;99.90;;;;;;7394627;19;20069;-48
2022/11/24 02:25:35;;;;;;;26.67;5.40;;;6.50;99.90;;;;;;7393311;19;20018;-50
2022/11/24 02:28:07;;;;;;;19.17;5.65;;;6.50;99.90;;;;;;7396998;19;20010;-49
2022/11/24 02:30:34;;;;;;;14.95;5.32;;;6.50;99.90;;;;;;7377178;19;20369;-44
2022/11/24 02:33:01;;;;;;;23.02;5.07;;;6.50;99.90;;;;;;7372507;19;20029;-44
2022/11/24 02:35:27;;;;;;;21.98;5.47;;;6.50;99.90;;;;;;7395427;19;20040;-47
2022/11/24 02:37:54;;;;;;;17.55;4.88;;;6.60;99.90;;;;;;7393643;19;20014;-50
2022/11/24 02:40:24;;;;;;;22.35;5.00;;;6.50;99.90;;;;;;7387287;19;20014;-45
2022/11/24 02:42:58;;;;;;;19.67;5.97;;;6.50;99.90;;;;;;7374548;19;20018;-45
2022/11/24 02:45:26;;;;;;;20.83;5.97;;;6.60;99.90;;;;;;7377205;19;20022;-48
2022/11/24 02:47:52;;;;;;;23.33;6.03;;;6.50;99.90;;;;;;7389634;19;20026;-46
2022/11/24 02:50:18;;;;;;;13.75;4.93;;;6.50;99.90;;;;;;7383294;19;21363;-46
2022/11/24 02:52:44;;;;;;;18.55;4.72;;;6.50;99.90;;;;;;7374585;19;20058;-46
2022/11/24 02:55:11;;;;;;;23.88;6.20;;;6.50;99.90;;;;;;7373453;19;20038;-45
2022/11/24 02:57:38;;;;;;;21.83;5.28;;;6.50;99.90;;;;;;7373184;19;20374;-45
2022/11/24 03:00:05;;;;;;;21.67;4.75;;;6.50;99.90;;;;;;7371501;19;20046;-46
2022/11/24 03:02:31;;;;;;;20.80;5.03;;;6.60;99.90;;;;;;7370280;19;20018;-46
2022/11/24 03:04:57;;;;;;;23.92;6.10;;;6.60;99.90;;;;;;7367888;19;20086;-49
2022/11/24 03:07:26;;;;;;;20.42;5.85;;;6.70;99.90;;;;;;7374135;19;20074;-44
2022/11/24 03:09:53;;;;;;;22.02;5.45;;;6.70;99.90;;;;;;7370727;19;20025;-44
2022/11/24 03:12:19;;;;;;;25.90;5.05;;;6.80;99.90;;;;;;7373513;19;20486;-47
2022/11/24 03:14:45;;;;;;;24.70;5.22;;;6.80;99.90;;;;;;7373555;19;20483;-45
2022/11/24 03:17:11;;;;;;;18.92;5.43;;;6.80;99.90;;;;;;7367472;19;20022;-45
2022/11/24 03:19:38;;;;;;;21.25;5.55;;;6.90;99.90;;;;;;7372516;19;20057;-45
2022/11/24 03:22:04;;;;;;;22.17;4.72;;;6.90;99.90;;;;;;7369030;19;20022;-45
2022/11/24 03:24:30;;;;;;;16.27;4.15;;;7.00;99.90;;;;;;7367696;19;20018;-45
2022/11/24 03:26:56;;;;;;;17.15;5.50;;;7.00;99.90;;;;;;7372658;19;20362;-48
2022/11/24 03:29:22;;;;;;;20.08;4.05;;;7.10;99.90;;;;;;7370236;19;20454;-45
2022/11/24 03:31:48;;;;;;;15.23;4.03;;;7.10;99.90;;;;;;7370081;19;20399;-45
2022/11/24 03:34:15;;;;;;;16.67;4.00;;;7.10;99.90;;;;;;7372740;19;20081;-48
2022/11/24 03:36:41;;;;;;;15.85;4.10;;;7.20;99.90;;;;;;7389464;19;20031;-47
2022/11/24 03:39:07;;;;;;;19.73;4.25;;;7.20;99.90;;;;;;7377247;19;20039;-46
2022/11/24 03:41:33;;;;;;;21.27;4.10;;;7.20;99.90;;;;;;7371741;19;20585;-44
2022/11/24 03:44:00;;;;;;;18.23;4.10;;;7.20;99.90;;;;;;7371424;19;20029;-45
2022/11/24 03:46:26;;;;;;;19.05;4.00;;;7.20;99.90;;;;;;7368465;19;20033;-49
2022/11/24 03:48:52;;;;;;;21.33;3.88;;;7.20;99.90;;;;;;7368106;19;20050;-46
2022/11/24 03:51:18;;;;;;;17.35;3.85;;;7.10;99.90;;;;;;7371783;19;20492;-46
2022/11/24 03:53:44;;;;;;;17.77;3.78;;;7.10;99.90;;;;;;7372245;19;20026;-45
2022/11/24 03:56:11;;;;;;;19.38;4.03;;;7.00;99.90;;;;;;7369748;19;20018;-45
2022/11/24 03:58:39;;;;;;;16.02;4.93;;;6.90;99.90;;;;;;7376491;19;20018;-50
2022/11/24 04:01:05;;;;;;;14.73;3.35;;;6.90;99.90;;;;;;7390000;19;20018;-48
2022/11/24 04:03:31;;;;;;;19.25;3.70;;;6.90;99.90;;;;;;7390466;19;20022;-47
2022/11/24 04:05:57;;;;;;;16.70;3.90;;;6.80;99.90;;;;;;7367219;19;20380;-47
2022/11/24 04:08:23;;;;;;;19.77;4.03;;;6.90;99.90;;;;;;7369904;19;20026;-44
2022/11/24 04:10:52;;;;;;;14.13;4.05;;;7.00;99.90;;;;;;7391383;19;20041;-46
2022/11/24 04:13:21;;;;;;;13.90;3.00;;;6.90;99.90;;;;;;7373423;19;20023;-44
2022/11/24 04:15:47;;;;;;;15.25;2.85;;;6.90;99.90;;;;;;7371989;19;20024;-46
2022/11/24 04:18:14;;;;;;;14.98;3.83;;;7.00;99.90;;;;;;7388160;19;20022;-50
2022/11/24 04:20:44;;;;;;;16.92;3.63;;;7.00;99.90;;;;;;7392591;19;20014;-50
2022/11/24 04:23:11;;;;;;;20.27;4.53;;;6.90;99.90;;;;;;7381424;19;20018;-46
2022/11/24 04:25:37;;;;;;;18.63;3.45;;;7.00;99.90;;;;;;7372910;19;20053;-47
2022/11/24 04:28:04;;;;;;;13.80;3.63;;;7.00;99.90;;;;;;7371495;19;20812;-45
2022/11/24 04:30:30;;;;;;;12.57;3.28;;;7.00;99.90;;;;;;7375201;19;20022;-47
2022/11/24 04:32:56;;;;;;;16.90;3.75;;;7.00;99.90;;;;;;7370246;19;20054;-47
2022/11/24 04:35:23;;;;;;;17.02;3.70;;;6.90;99.90;;;;;;7371394;19;20018;-45
2022/11/24 04:37:49;;;;;;;16.88;4.43;;;6.90;99.90;;;;;;7368163;19;20050;-48
2022/11/24 04:40:16;;;;;;;18.35;3.63;;;6.90;99.90;;;;;;7368909;19;20018;-47
2022/11/24 04:42:42;;;;;;;12.70;3.30;;;6.80;99.90;;;;;;7373099;19;20494;-45
2022/11/24 04:45:10;;;;;;;12.02;3.58;;;6.80;99.90;;;;;;7369285;19;20111;-46
2022/11/24 04:47:37;;;;;;;20.60;4.45;;;6.80;99.90;;;;;;7370836;19;20440;-51
2022/11/24 04:50:06;;;;;;;16.38;3.67;;;6.80;99.90;;;;;;7389349;19;20052;-49
2022/11/24 04:52:32;;;;;;;15.82;4.13;;;6.70;99.90;;;;;;7380041;19;20106;-48
2022/11/24 04:54:58;;;;;;;18.10;3.38;;;6.60;99.90;;;;;;7369282;19;20018;-47
2022/11/24 04:57:26;;;;;;;14.98;3.20;;;6.50;99.90;;;;;;7377215;19;20040;-48
2022/11/24 04:59:53;;;;;;;13.88;3.38;;;6.50;99.90;;;;;;7391148;19;20356;-48
2022/11/24 05:02:20;;;;;;;13.77;3.63;;;6.50;99.90;;;;;;7391862;19;20552;-50
2022/11/24 05:04:47;;;;;;;14.80;3.80;;;6.50;99.90;;;;;;7390230;19;20038;-50
2022/11/24 05:07:15;;;;;;;13.60;3.80;;;6.50;99.90;;;;;;7391264;19;20018;-46
2022/11/24 05:12:30;;;;;;;12.63;3.20;;;6.50;99.90;;;;;;7389449;19;20018;-45
2022/11/24 05:15:00;;;;;;;16.15;4.65;;;6.50;99.90;;;;;;7389714;19;20006;-47
2022/11/24 05:17:34;;;;;;;16.60;4.00;;;6.50;99.90;;;;;;7389661;19;20022;-50
2022/11/24 05:20:01;;;;;;;18.90;4.13;;;6.50;99.90;;;;;;7388457;19;20018;-48
2022/11/24 05:22:28;;;;;;;16.00;4.07;;;6.50;99.90;;;;;;7390953;19;20045;-49
2022/11/24 05:24:55;;;;;;;18.73;3.78;;;6.40;99.90;;;;;;7379480;19;20014;-44
2022/11/24 05:27:21;;;;;;;17.88;3.63;;;6.40;99.90;;;;;;7368143;19;20022;-44
2022/11/24 05:29:47;;;;;;;10.60;3.00;;;6.30;99.90;;;;;;7367479;19;20014;-45
2022/11/24 05:32:13;;;;;;;21.40;3.72;;;6.30;99.90;;;;;;7363936;19;20033;-46
2022/11/24 05:34:39;;;;;;;20.08;3.42;;;6.30;99.90;;;;;;7369513;19;20018;-48
2022/11/24 05:37:07;;;;;;;13.70;4.00;;;6.20;99.90;;;;;;7369561;19;20482;-49
2022/11/24 05:39:34;;;;;;;19.10;3.63;;;6.20;99.90;;;;;;7364354;19;20025;-45
2022/11/24 05:42:39;;;;;;;17.65;3.95;;;6.20;99.90;;;;;;7365827;19;20033;-47
2022/11/24 05:44:51;;;;;;;22.38;3.90;;;6.20;99.90;;;;;;7366029;19;20018;-45
2022/11/24 05:47:18;;;;;;;15.75;3.30;;;6.20;99.90;;;;;;7370678;19;20779;-44
2022/11/24 05:49:44;;;;;;;15.88;4.18;;;6.10;99.90;;;;;;7367786;19;20015;-46
2022/11/24 05:52:11;;;;;;;17.73;3.97;;;6.10;99.90;;;;;;7368349;19;20022;-45
2022/11/24 05:54:37;;;;;;;16.58;4.53;;;6.10;99.90;;;;;;7365834;19;20015;-45
2022/11/24 05:57:04;;;;;;;21.70;5.45;;;6.10;99.90;;;;;;7370827;19;20429;-43
2022/11/24 05:59:30;;;;;;;19.42;5.00;;;6.10;99.90;;;;;;7372853;19;20541;-44
2022/11/24 06:01:57;;;;;;;15.73;4.07;;;6.00;99.90;;;;;;7372965;19;20014;-44
2022/11/24 06:04:23;;;;;;;20.45;4.20;;;6.00;99.90;;;;;;7372309;19;20029;-46
2022/11/24 06:06:49;;;;;;;13.48;3.67;;;5.90;99.90;;;;;;7375565;19;20074;-50
2022/11/24 06:09:16;;;;;;;10.20;3.00;;;5.90;99.90;;;;;;7378856;19;20116;-45
2022/11/24 06:11:42;;;;;;;9.88;2.70;;;5.90;99.90;;;;;;7374449;19;20484;-45
2022/11/24 06:14:09;;;;;;;13.98;3.22;;;5.80;99.90;;;;;;7380830;19;20015;-50
2022/11/24 06:16:36;;;;;;;14.10;3.35;;;5.80;99.90;;;;;;7391656;19;20028;-49
2022/11/24 06:19:02;;;;;;;15.82;3.90;;;5.80;99.90;;;;;;7389541;19;20373;-50
2022/11/24 06:21:29;;;;;;;12.20;3.42;;;5.80;99.90;;;;;;7389183;19;20037;-45
2022/11/24 06:23:55;;;;;;;17.40;5.45;;;5.80;99.90;;;;;;7371299;19;20022;-43
2022/11/24 06:26:21;;;;;;;22.60;6.07;;;5.80;99.90;;;;;;7376873;19;20090;-44
2022/11/24 06:28:48;;;;;;;21.25;4.50;;;5.80;99.90;;;;;;7374321;19;20026;-45
2022/11/24 06:31:14;;;;;;;14.27;3.60;;;5.80;99.90;;;;;;7377549;19;20695;-44
2022/11/24 06:33:40;;;;;;;14.23;3.55;;;5.80;99.90;;;;;;7379067;19;20018;-45
2022/11/24 06:36:11;;;;;;;10.85;3.97;;;5.80;99.90;;;;;;7379433;19;20326;-46
2022/11/24 06:38:37;;;;;;;15.27;3.92;;;5.70;99.90;;;;;;7389745;19;20015;-48
2022/11/24 06:41:11;;;;;;;16.92;4.13;;;5.70;99.90;;;;;;7389524;19;20477;-47
2022/11/24 06:43:38;;;;;;;21.73;3.35;;;5.70;99.90;;;;;;7376465;19;20426;-46
2022/11/24 06:46:04;;;;;;;22.00;4.88;;;5.70;99.90;;;;;;7371790;19;20018;-46
2022/11/24 06:48:31;;;;;;;16.55;3.53;;;5.80;99.90;;;;;;7373503;19;20097;-46
2022/11/24 06:51:05;;;;;;;12.93;3.45;;;5.80;99.90;;;;;;7373307;19;20516;-45
2022/11/24 06:53:36;;;;;;;14.70;5.22;;;5.80;99.90;;;;;;7371812;19;20391;-46
2022/11/24 06:56:11;;;;;;;15.33;4.63;;;5.90;99.90;;;;;;7369087;19;20026;-46
2022/11/24 06:58:42;;;;;;;16.80;3.90;;;5.90;99.90;;;;;;7370761;19;20473;-48
2022/11/24 07:01:08;;;;;;;16.27;3.92;;;6.00;99.90;;;;;;7374909;19;20074;-43
2022/11/24 07:03:35;;;;;;;19.67;5.03;;;6.00;99.90;;;;;;7393028;19;20015;-50
2022/11/24 07:06:01;;;;;;;16.50;3.80;;;6.00;99.90;;;;;;7390097;19;20479;-49
2022/11/24 07:08:28;;;;;;;14.70;3.90;;;6.00;99.90;;;;;;7389311;19;20086;-48
2022/11/24 07:10:54;;;;;;;23.13;4.30;;;6.00;99.90;;;;;;7390701;19;20393;-50
2022/11/24 07:13:21;;;;;;;11.55;3.78;;;6.00;99.90;;;;;;7390990;19;20014;-48
2022/11/24 07:16:16;;;;;;;18.00;5.03;;;6.00;99.90;;;;;;7389961;19;20525;-48
2022/11/24 07:18:44;;;;;;;16.20;3.85;;;6.00;99.90;;;;;;7376159;19;20019;-45
2022/11/24 07:21:10;;;;;;;14.07;4.57;;;6.10;99.90;;;;;;7369231;19;20018;-49
2022/11/24 07:23:38;;;;;;;15.18;4.20;;;6.10;99.90;;;;;;7374843;19;20482;-45
2022/11/24 07:26:06;;;;;;;16.38;4.05;;;6.10;99.90;;;;;;7377055;19;20022;-45
2022/11/24 07:28:33;;;;;;;17.75;4.75;;;6.20;99.90;;;;;;7372186;19;20619;-45
2022/11/24 07:31:08;;;;;;;12.02;4.30;;;6.20;99.90;;;;;;7373789;19;20772;-44
2022/11/24 07:33:35;;;;;;;19.92;4.45;;;6.30;99.90;;;;;;7375738;19;20022;-45
2022/11/24 07:36:02;;;;;;;21.15;4.45;;;6.30;99.90;;;;;;7373130;19;20018;-48
2022/11/24 07:38:30;;;;;;;15.35;4.35;;;6.30;99.90;;;;;;7369976;19;20489;-45
2022/11/24 07:41:05;;;;;;;16.73;4.40;;;6.40;99.90;;;;;;7381910;19;20014;-51
2022/11/24 07:43:33;;;;;;;16.25;4.15;;;6.40;99.90;;;;;;7390000;19;20019;-49
2022/11/24 07:46:00;;;;;;;15.15;5.05;;;6.40;99.90;;;;;;7384005;19;20590;-44
2022/11/24 07:48:26;;;;;;;15.73;3.78;;;6.50;99.90;;;;;;7371497;19;20077;-45
2022/11/24 07:50:52;;;;;;;20.83;4.38;;;6.50;99.90;;;;;;7376002;19;20022;-44
2022/11/24 07:53:18;;;;;;;15.10;4.88;;;6.50;99.90;;;;;;7388913;19;20017;-47
2022/11/24 07:55:55;;;;;;;18.40;5.00;;;6.50;99.90;;;;;;7390361;19;20493;-47
2022/11/24 07:58:22;;;;;;;15.35;5.55;;;6.50;99.90;;;;;;7389019;19;20493;-49
2022/11/24 08:00:48;;;;;;;18.95;5.90;;;6.50;99.90;;;;;;7388818;19;20006;-48
2022/11/24 08:03:14;;;;;;;18.75;5.28;;;6.60;99.90;;;;;;7388809;19;20022;-48
2022/11/24 08:05:56;;;;;;;17.70;5.45;;;6.60;99.90;;;;;;7387359;19;20041;-45
2022/11/24 08:08:22;;;;;;;19.63;5.53;;;6.60;99.90;;;;;;7381349;19;20014;-45
2022/11/24 08:10:49;;;;;;;16.85;6.13;;;6.60;99.90;;;;;;7371385;19;20442;-45
2022/11/24 08:13:15;;;;;;;14.70;5.25;;;6.60;99.90;;;;;;7367681;19;20527;-44
2022/11/24 08:15:42;;;;;;;19.15;6.13;;;6.60;99.90;;;;;;7369802;19;20018;-46
2022/11/24 08:18:08;;;;;;;15.73;5.63;;;6.60;99.90;;;;;;7365644;19;20124;-46
2022/11/24 08:20:34;;;;;;;17.17;5.18;;;6.70;99.90;;;;;;7362496;19;20371;-46
2022/11/24 08:23:00;;;;;;;17.40;5.75;;;6.70;99.90;;;;;;7368896;19;20018;-46
2022/11/24 08:25:31;;;;;;;15.45;6.03;;;6.70;99.90;;;;;;7368017;19;20492;-48
2022/11/24 08:27:59;;;;;;;18.85;5.93;;;6.70;99.90;;;;;;7370934;19;20018;-43
2022/11/24 08:30:26;;;;;;;17.23;5.78;;;6.90;99.90;;;;;;7373886;19;20022;-49
2022/11/24 08:32:52;;;;;;;18.33;6.00;;;7.20;99.90;;;;;;7386959;19;20037;-50
2022/11/24 08:35:19;;;;;;;13.40;5.43;;;7.40;99.90;;;;;;7388245;19;20097;-50
2022/11/24 08:37:45;;;;;;;16.85;5.93;;;7.50;99.90;;;;;;7385496;19;20065;-50
2022/11/24 08:40:12;;;;;;;21.23;6.00;;;7.60;99.90;;;;;;7384602;19;20390;-49
2022/11/24 08:42:39;;;;;;;13.32;4.80;;;7.80;99.90;;;;;;7386532;19;20101;-49
2022/11/24 08:45:06;;;;;;;12.90;6.05;;;7.90;99.90;;;;;;7385246;19;20027;-51
2022/11/24 08:47:32;;;;;;;15.57;5.60;;;7.90;99.90;;;;;;7383773;19;20022;-49
2022/11/24 08:49:58;;;;;;;14.88;4.43;;;7.90;99.90;;;;;;7386403;19;20029;-50
2022/11/24 08:52:24;;;;;;;14.93;4.40;;;7.90;99.90;;;;;;7368736;19;20054;-47
2022/11/24 08:54:50;;;;;;;22.08;5.85;;;7.90;99.90;;;;;;7369837;19;20018;-45
2022/11/24 08:57:17;;;;;;;12.40;5.05;;;7.90;99.90;;;;;;7378477;19;20033;-48
2022/11/24 08:59:44;;;;;;;11.00;4.55;;;7.90;99.90;;;;;;7385740;19;20049;-45
2022/11/24 09:02:12;;;;;;;16.90;4.00;;;7.90;99.90;;;;;;7386920;19;20107;-50
2022/11/24 09:04:38;;;;;;;14.13;4.68;;;7.90;99.90;;;;;;7385274;19;20018;-45
2022/11/24 09:07:05;;;;;;;10.80;4.40;;;8.00;99.90;;;;;;7377974;19;20014;-45
2022/11/24 09:09:31;;;;;;;11.80;5.32;;;8.00;99.90;;;;;;7385906;19;20007;-46
2022/11/24 09:11:58;;;;;;;9.38;4.43;;;8.00;99.90;;;;;;7383285;19;20388;-47
2022/11/24 09:14:24;;;;;;;8.85;4.15;;;8.10;99.90;;;;;;7380935;19;20014;-49
2022/11/24 09:16:50;;;;;;;10.93;5.47;;;8.20;99.90;;;;;;7380891;19;20703;-46
2022/11/24 09:19:16;;;;;;;11.88;4.43;;;8.30;99.90;;;;;;7377990;19;20018;-46
2022/11/24 09:21:43;;;;;;;10.98;4.10;;;8.30;99.90;;;;;;7380501;19;20468;-48
2022/11/24 09:24:09;;;;;;;9.77;4.05;;;8.30;99.90;;;;;;7374701;19;20474;-45
2022/11/24 09:26:37;;;;;;;8.20;2.97;;;8.40;99.90;;;;;;7372530;19;20018;-46
2022/11/24 09:29:05;;;;;;;10.05;4.15;;;8.40;99.90;;;;;;7366447;19;20744;-46
2022/11/24 09:31:33;;;;;;;10.40;3.10;;;8.50;99.90;;;;;;7374381;19;20041;-44
2022/11/24 09:34:05;;;;;;;8.43;4.03;;;8.90;99.90;;;;;;7369480;19;20078;-48
2022/11/24 09:36:31;;;;;;;7.07;3.08;;;9.30;99.90;;;;;;7385801;19;20383;-51
2022/11/24 09:38:58;;;;;;;5.82;2.63;;;9.40;99.90;;;;;;7389746;19;20037;-46
2022/11/24 09:41:39;;;;;;;7.97;2.67;;;9.60;99.90;;;;;;7377918;19;20489;-48
2022/11/24 09:44:33;;;;;;;6.15;2.40;;;9.60;99.90;;;;;;7387748;19;20446;-46
2022/11/24 09:47:13;;;;;;;5.88;2.15;;;9.80;99.90;;;;;;7381293;19;20022;-47
2022/11/24 09:49:52;;;;;;;7.90;2.30;;;9.70;99.90;;;;;;7375108;19;20027;-43
2022/11/24 09:52:36;;;;;;;7.95;2.60;;;9.50;99.90;;;;;;7377068;19;20082;-43
2022/11/24 09:55:12;;;;;;;4.20;2.28;;;9.40;99.90;;;;;;7383717;19;20019;-46
2022/11/24 09:57:42;;;;;;;7.55;2.17;;;9.30;99.90;;;;;;7388330;19;20596;-48
2022/11/24 10:00:12;;;;;;;5.78;2.47;;;9.20;99.90;;;;;;7384962;19;20025;-48
2022/11/24 10:02:38;;;;;;;5.53;2.40;;;9.10;99.90;;;;;;7379901;19;20018;-47
2022/11/24 10:05:05;;;;;;;7.32;2.78;;;9.20;99.90;;;;;;7374493;19;20379;-44
2022/11/24 10:07:41;;;;;;;6.88;2.33;;;9.20;99.90;;;;;;7377768;19;20031;-44
2022/11/24 10:10:17;;;;;;;5.68;2.50;;;9.20;99.90;;;;;;7370494;19;20062;-46
2022/11/24 10:12:56;;;;;;;5.35;3.00;;;9.30;99.90;;;;;;7378592;19;20550;-50
2022/11/24 10:15:31;;;;;;;9.00;2.90;;;9.50;99.90;;;;;;7377193;19;20041;-44
2022/11/24 10:18:24;;;;;;;4.57;2.20;;;9.80;99.90;;;;;;7382771;19;20027;-49
2022/11/24 10:21:08;;;;;;;4.85;2.83;;;10.00;99.90;;;;;;7379500;19;20022;-49
2022/11/24 10:24:05;;;;;;;7.57;2.83;;;10.10;99.90;;;;;;7385541;19;20466;-49
2022/11/24 10:26:36;;;;;;;7.82;2.92;;;9.90;99.90;;;;;;7374634;19;20043;-43
2022/11/24 10:29:27;;;;;;;6.75;3.13;;;9.90;99.90;;;;;;7372850;19;20025;-46
2022/11/24 10:31:55;;;;;;;4.85;2.75;;;9.80;99.90;;;;;;7373365;19;20104;-45
2022/11/24 10:34:34;;;;;;;7.05;3.42;;;9.70;99.90;;;;;;7386030;19;20015;-50
2022/11/24 10:37:09;;;;;;;6.00;3.20;;;9.70;99.90;;;;;;7385843;19;20022;-46
2022/11/24 10:39:45;;;;;;;6.70;3.50;;;9.70;99.90;;;;;;7386566;19;20529;-49
2022/11/24 10:42:25;;;;;;;5.20;3.00;;;9.70;99.90;;;;;;7379581;19;20486;-46
2022/11/24 10:45:01;;;;;;;5.72;3.42;;;9.80;99.90;;;;;;7372384;19;20018;-43
2022/11/24 10:47:29;;;;;;;9.20;4.25;;;9.80;99.90;;;;;;7374703;19;20025;-44
2022/11/24 10:50:09;;;;;;;6.18;3.67;;;10.00;99.90;;;;;;7377075;19;20026;-47
2022/11/24 10:52:46;;;;;;;7.63;3.97;;;10.40;99.90;;;;;;7386078;19;20018;-47
2022/11/24 10:55:12;;;;;;;7.43;3.65;;;10.60;99.90;;;;;;7382826;19;20022;-46
2022/11/24 10:57:40;;;;;;;7.38;3.95;;;10.90;99.90;;;;;;7376865;19;20025;-48
2022/11/24 11:00:18;;;;;;;9.25;3.80;;;11.40;99.90;;;;;;7373955;19;20046;-47
2022/11/24 11:02:47;;;;;;;12.18;3.88;;;11.50;99.90;;;;;;7369067;19;20025;-45
2022/11/24 11:05:31;;;;;;;8.00;3.95;;;11.30;99.90;;;;;;7376015;19;20619;-45
2022/11/24 11:08:21;;;;;;;9.57;4.13;;;11.10;99.90;;;;;;7385746;19;20011;-48
2022/11/24 11:10:50;;;;;;;14.07;4.10;;;10.90;99.90;;;;;;7370928;19;20482;-44
2022/11/24 11:13:24;;;;;;;7.75;3.67;;;10.90;99.90;;;;;;7382596;19;20014;-49
2022/11/24 11:15:50;;;;;;;12.18;4.05;;;10.90;99.90;;;;;;7379719;19;20019;-46
2022/11/24 11:18:19;;;;;;;13.00;4.07;;;11.20;99.90;;;;;;7371779;19;20011;-45
2022/11/24 11:20:54;;;;;;;8.32;4.57;;;11.20;99.90;;;;;;7367704;19;20037;-46
2022/11/24 11:23:34;;;;;;;12.13;4.18;;;11.00;99.90;;;;;;7371226;19;20042;-46
2022/11/24 11:26:37;;;;;;;10.20;4.70;;;11.10;99.90;;;;;;7369247;19;20121;-44
2022/11/24 11:29:06;;;;;;;8.25;3.75;;;11.60;99.90;;;;;;7372155;19;20372;-49
2022/11/24 11:31:34;;;;;;;9.60;4.07;;;12.30;99.90;;;;;;7370059;19;20026;-51
2022/11/24 11:34:09;;;;;;;8.90;3.80;;;13.10;99.90;;;;;;7370673;19;20018;-46
2022/11/24 11:36:40;;;;;;;8.63;3.80;;;14.00;99.90;;;;;;7377963;19;20022;-51
2022/11/24 11:39:15;;;;;;;7.93;3.63;;;14.70;99.90;;;;;;7371380;19;20014;-48
2022/11/24 11:41:45;;;;;;;9.20;3.45;;;15.00;99.90;;;;;;7369759;19;20483;-47
2022/11/24 11:44:53;;;;;;;7.10;3.25;;;15.20;99.90;;;;;;7370009;19;20467;-47
2022/11/24 11:47:30;;;;;;;8.15;3.58;;;15.30;99.90;;;;;;7372661;19;20358;-46
2022/11/24 11:49:57;;;;;;;8.27;2.97;;;15.60;99.90;;;;;;7370646;19;20386;-44
2022/11/24 11:52:31;;;;;;;5.93;3.30;;;15.40;99.90;;;;;;7369014;19;20399;-44
2022/11/24 11:55:28;;;;;;;8.68;3.45;;;15.50;99.90;;;;;;7368512;19;20014;-46
2022/11/24 11:58:12;;;;;;;9.95;3.67;;;15.70;99.90;;;;;;7376911;19;20046;-50
2022/11/24 12:00:51;;;;;;;11.02;3.80;;;15.90;99.90;;;;;;7374320;19;20037;-49
2022/11/24 12:03:33;;;;;;;8.52;4.13;;;15.70;99.90;;;;;;7375244;19;20482;-46
2022/11/24 12:06:19;;;;;;;13.52;3.60;;;15.90;99.90;;;;;;7367806;19;20018;-46
2022/11/24 12:08:45;;;;;;;9.18;3.60;;;16.10;99.90;;;;;;7370494;19;20017;-46
2022/11/24 12:11:26;;;;;;;8.82;3.53;;;16.40;99.90;;;;;;7372931;19;20595;-46
2022/11/24 12:14:22;;;;;;;9.55;3.30;;;16.40;99.90;;;;;;7369177;19;20047;-45
2022/11/24 12:17:17;;;;;;;6.45;3.25;;;16.50;99.90;;;;;;7370194;19;20354;-44
2022/11/24 12:20:11;;;;;;;12.18;3.70;;;16.80;99.90;;;;;;7366947;19;20014;-44
2022/11/24 12:23:19;;;;;;;8.27;2.97;;;17.00;99.90;;;;;;7366301;19;20018;-44
2022/11/24 12:26:06;;;;;;;8.70;2.75;;;17.00;99.90;;;;;;7365531;19;20486;-46
2022/11/24 12:28:45;;;;;;;7.10;2.70;;;16.60;99.90;;;;;;7368314;19;20018;-46
2022/11/24 12:31:40;;;;;;;8.73;2.63;;;16.40;99.90;;;;;;7363506;19;20490;-48
2022/11/24 12:34:37;;;;;;;6.80;2.72;;;16.90;99.90;;;;;;7366320;19;20022;-48
2022/11/24 12:37:09;;;;;;;9.90;2.95;;;17.40;99.90;;;;;;7371697;19;20366;-50
2022/11/24 12:39:49;;;;;;;6.07;2.30;;;17.30;99.90;;;;;;7369009;19;20474;-46
2022/11/24 12:42:43;;;;;;;10.88;2.67;;;17.30;99.90;;;;;;7363868;19;20451;-50
2022/11/24 12:45:12;;;;;;;10.00;3.38;;;17.70;99.90;;;;;;7361885;19;20368;-45
2022/11/24 12:47:51;;;;;;;8.50;2.78;;;17.70;99.90;;;;;;7369565;19;20014;-48
2022/11/24 12:50:20;;;;;;;7.43;2.70;;;18.00;99.90;;;;;;7365144;19;20014;-44
2022/11/24 12:52:59;;;;;;;10.60;3.15;;;18.10;99.90;;;;;;7366226;19;20026;-46
2022/11/24 12:55:31;;;;;;;10.52;3.55;;;18.10;99.90;;;;;;7364864;19;20023;-45
2022/11/24 12:58:35;;;;;;;9.88;3.42;;;17.70;99.90;;;;;;7368365;19;20019;-45
2022/11/24 13:01:23;;;;;;;9.43;3.28;;;17.10;99.90;;;;;;7361709;19;20375;-46
2022/11/24 13:04:01;;;;;;;9.07;3.00;;;17.30;99.90;;;;;;7366635;19;20026;-46
2022/11/24 13:06:50;;;;;;;7.47;3.28;;;17.90;99.90;;;;;;7377868;19;20481;-48
2022/11/24 13:09:18;;;;;;;11.43;3.60;;;17.80;99.90;;;;;;7380118;19;20018;-45
2022/11/24 13:11:52;;;;;;;10.82;3.50;;;17.80;99.90;;;;;;7382372;19;20026;-46